Latest Weather Observations for Harden RF68 (RFS)
Issued at 5:52 am EST Wednesday 2 September 2026 (issued every 10 minutes, with the page automatically refreshed every 10 minutes)
| Station Details | ID: 572040 | Name: HARDEN (RFS) | Lat: -34.56 | Lon: 148.39 | Height: 428.0 m |
Portable automatic weather stations (PAWS) are operated by other organisations, such as Fire and Emergency Services, and are included here by agreement. Portable stations may be deployed to a location for a short period and their location may be subject to change without notice. Wind observations from these stations are provided from heights of either three (3) or ten (10) metres above ground level (AGL).
Data from the previous 72 hours. | See also: Recent months for locations in New South Wales| Date/Time EST |
Temp °C |
App Temp °C |
Dew Point °C |
Rel Hum % |
Delta-T °C |
Wind | Press QNH hPa |
Press MSL hPa |
Rain since 9am mm |
|||||
|---|---|---|---|---|---|---|---|---|---|---|---|---|---|---|
| Dir | Spd km/h |
Gust km/h |
Spd kts |
Gust kts |
||||||||||
| 02/05:40am | 11.3 | 9.9 | 9.0 | 86 | 1.2 | N | 6 | 6 | 3 | 3 | 1016.4 | 965.9 | 0.6 | |
| 02/05:30am | 11.4 | 10.5 | 9.3 | 87 | 1.1 | NNE | 4 | 6 | 2 | 3 | 1016.4 | 965.9 | 0.6 | |
| 02/05:20am | 11.7 | 10.4 | 9.3 | 85 | 1.2 | NE | 6 | 7 | 3 | 4 | 1016.4 | 965.9 | 0.6 | |
| 02/05:10am | 12.2 | 11.0 | 9.5 | 83 | 1.4 | NE | 6 | 6 | 3 | 3 | 1016.4 | 965.9 | 0.6 | |
| 02/05:00am | 12.1 | 10.9 | 9.6 | 85 | 1.3 | NE | 6 | 7 | 3 | 4 | 1016.4 | 965.9 | 0.6 | |
| 02/04:50am | 12.1 | 10.7 | 9.6 | 85 | 1.3 | ENE | 7 | 9 | 4 | 5 | 1016.3 | 965.8 | 0.6 | |
| 02/04:40am | 12.0 | 10.8 | 9.6 | 85 | 1.2 | ENE | 6 | 7 | 3 | 4 | 1016.3 | 965.8 | 0.6 | |
| 02/04:30am | 12.0 | 10.8 | 9.6 | 85 | 1.2 | NNE | 6 | 9 | 3 | 5 | 1016.2 | 965.7 | 0.6 | |
| 02/04:20am | 12.3 | 11.5 | 9.6 | 83 | 1.4 | N | 4 | 6 | 2 | 3 | 1016.6 | 966.1 | 0.6 | |
| 02/04:10am | 12.7 | 11.5 | 9.6 | 81 | 1.6 | SSE | 6 | 9 | 3 | 5 | 1016.6 | 966.1 | 0.6 | |
| 02/04:00am | 12.6 | 11.4 | 9.7 | 82 | 1.5 | W | 6 | 7 | 3 | 4 | 1016.4 | 965.9 | 0.6 | |
| 02/03:50am | 12.5 | 9.7 | 10.0 | 85 | 1.3 | SW | 15 | 26 | 8 | 14 | 1016.5 | 966.0 | 0.6 | |
| 02/03:40am | 12.2 | 10.5 | 10.0 | 86 | 1.2 | SW | 9 | 20 | 5 | 11 | 1016.3 | 965.8 | 0.6 | |
| 02/03:30am | 12.5 | 11.4 | 9.9 | 84 | 1.4 | N | 6 | 9 | 3 | 5 | 1016.3 | 965.8 | 0.6 | |
| 02/03:20am | 12.6 | 11.3 | 9.9 | 83 | 1.4 | N | 7 | 11 | 4 | 6 | 1016.0 | 965.5 | 0.6 | |
| 02/03:10am | 12.5 | 10.4 | 9.9 | 84 | 1.4 | N | 11 | 17 | 6 | 9 | 1016.1 | 965.6 | 0.6 | |
| 02/03:00am | 12.6 | 10.2 | 10.0 | 84 | 1.4 | N | 13 | 19 | 7 | 10 | 1016.3 | 965.8 | 0.6 | |
| 02/02:50am | 12.7 | 9.9 | 10.0 | 83 | 1.4 | N | 15 | 22 | 8 | 12 | 1016.3 | 965.8 | 0.6 | |
| 02/02:40am | 12.8 | 9.1 | 10.1 | 84 | 1.4 | N | 20 | 28 | 11 | 15 | 1016.6 | 966.1 | 0.6 | |
| 02/02:30am | 12.7 | 9.1 | 10.0 | 83 | 1.4 | N | 19 | 30 | 10 | 16 | 1016.5 | 966.0 | 0.6 | |
| 02/02:20am | 12.7 | 11.1 | 10.1 | 84 | 1.4 | NNW | 9 | 13 | 5 | 7 | 1017.4 | 966.9 | 0.4 | |
| 02/02:10am | 13.1 | 11.1 | 10.2 | 82 | 1.5 | WNW | 11 | 22 | 6 | 12 | 1018.0 | 967.4 | 0.4 | |
| 02/02:00am | 13.2 | 11.2 | 10.2 | 82 | 1.6 | W | 11 | 13 | 6 | 7 | 1018.4 | 967.8 | 0.2 | |
| 02/01:50am | 12.3 | 11.3 | 10.2 | 87 | 1.1 | NE | 6 | 9 | 3 | 5 | 1017.6 | 967.1 | 0.0 | |
| 02/01:40am | 12.3 | 11.2 | 9.9 | 85 | 1.3 | E | 6 | 9 | 3 | 5 | 1017.2 | 966.7 | 0.0 | |
| 02/01:30am | 12.6 | 10.6 | 10.0 | 84 | 1.4 | SSW | 11 | 17 | 6 | 9 | 1017.9 | 967.3 | 0.0 | |
| 02/01:20am | 12.6 | 9.4 | 9.8 | 83 | 1.5 | SSW | 17 | 22 | 9 | 12 | 1017.8 | 967.2 | 0.0 | |
| 02/01:10am | 12.9 | 11.6 | 9.9 | 82 | 1.6 | WNW | 7 | 17 | 4 | 9 | 1017.5 | 967.0 | 0.0 | |
| 02/01:00am | 13.3 | 11.2 | 9.7 | 79 | 1.9 | N | 11 | 19 | 6 | 10 | 1017.0 | 966.5 | 0.0 | |
| 02/12:50am | 13.3 | 10.4 | 9.7 | 79 | 1.9 | N | 15 | 19 | 8 | 10 | 1016.8 | 966.3 | 0.0 | |
| 02/12:40am | 13.0 | 10.5 | 9.7 | 80 | 1.7 | N | 13 | 19 | 7 | 10 | 1016.9 | 966.4 | 0.0 | |
| 02/12:30am | 12.3 | 11.1 | 9.6 | 83 | 1.4 | N | 6 | 9 | 3 | 5 | 1017.2 | 966.7 | 0.0 | |
| 02/12:20am | 12.3 | 11.1 | 9.5 | 83 | 1.5 | NNW | 6 | 11 | 3 | 6 | 1017.3 | 966.8 | 0.0 | |
| 02/12:10am | 11.4 | 9.9 | 9.1 | 86 | 1.2 | NNE | 7 | 9 | 4 | 5 | 1017.6 | 967.1 | 0.0 | |
| 02/12:00am | 11.1 | 9.5 | 8.9 | 86 | 1.1 | NNE | 7 | 9 | 4 | 5 | 1017.5 | 967.0 | 0.0 | |
| Date/Time EST |
Temp °C |
App Temp °C |
Dew Point °C |
Rel Hum % |
Delta-T °C |
Wind | Press QNH hPa |
Press MSL hPa |
Rain since 9am mm |
|||||
|---|---|---|---|---|---|---|---|---|---|---|---|---|---|---|
| Dir | Spd km/h |
Gust km/h |
Spd kts |
Gust kts |
||||||||||
| 01/11:50pm | 10.8 | 9.2 | 8.6 | 86 | 1.1 | NNE | 7 | 9 | 4 | 5 | 1017.9 | 967.3 | 0.0 | |
| 01/11:40pm | 10.7 | 9.0 | 8.4 | 86 | 1.2 | NE | 7 | 9 | 4 | 5 | 1018.1 | 967.5 | 0.0 | |
| 01/11:30pm | 11.1 | 9.1 | 8.7 | 85 | 1.2 | NNE | 9 | 11 | 5 | 6 | 1018.2 | 967.6 | 0.0 | |
| 01/11:20pm | 10.8 | 9.2 | 8.7 | 87 | 1.1 | NE | 7 | 9 | 4 | 5 | 1018.4 | 967.8 | 0.0 | |
| 01/11:10pm | 10.7 | 9.2 | 8.5 | 86 | 1.1 | NE | 6 | 9 | 3 | 5 | 1018.6 | 968.0 | 0.0 | |
| 01/11:00pm | 10.8 | 9.8 | 8.8 | 87 | 1.0 | NE | 4 | 7 | 2 | 4 | 1018.8 | 968.2 | 0.0 | |
| 01/10:50pm | 10.9 | 9.8 | 8.5 | 85 | 1.2 | NNE | 4 | 6 | 2 | 3 | 1018.8 | 968.2 | 0.0 | |
| 01/10:40pm | 10.9 | 9.9 | 8.9 | 87 | 1.0 | NNE | 4 | 6 | 2 | 3 | 1018.9 | 968.3 | 0.0 | |
| 01/10:30pm | 10.4 | 9.8 | 8.9 | 90 | 0.8 | N | 2 | 4 | 1 | 2 | 1018.9 | 968.3 | 0.0 | |
| 01/10:20pm | 10.2 | 8.7 | 8.5 | 89 | 0.9 | NNE | 6 | 9 | 3 | 5 | 1018.9 | 968.3 | 0.0 | |
| 01/10:10pm | 10.2 | 9.1 | 8.6 | 90 | 0.8 | NNE | 4 | 6 | 2 | 3 | 1019.0 | 968.4 | 0.0 | |
| 01/10:00pm | 10.4 | 8.9 | 8.5 | 88 | 1.0 | NNE | 6 | 7 | 3 | 4 | 1019.1 | 968.5 | 0.0 | |
| 01/09:50pm | 10.6 | 9.2 | 8.8 | 89 | 0.9 | NE | 6 | 7 | 3 | 4 | 1019.2 | 968.6 | 0.0 | |
| 01/09:40pm | 10.9 | 9.6 | 9.1 | 89 | 0.9 | NE | 6 | 6 | 3 | 3 | 1019.3 | 968.7 | 0.0 | |
| 01/09:30pm | 10.8 | 9.4 | 9.0 | 89 | 0.9 | NE | 6 | 7 | 3 | 4 | 1019.4 | 968.8 | 0.0 | |
| 01/09:20pm | 10.9 | 10.0 | 9.2 | 89 | 0.9 | ENE | 4 | 7 | 2 | 4 | 1019.4 | 968.8 | 0.0 | |
| 01/09:10pm | 10.7 | 9.3 | 9.0 | 89 | 0.9 | NE | 6 | 6 | 3 | 3 | 1019.5 | 968.9 | 0.0 | |
| 01/09:00pm | 10.4 | 9.8 | 8.8 | 90 | 0.8 | NE | 2 | 6 | 1 | 3 | 1019.5 | 968.9 | 0.0 | |
| 01/08:50pm | 10.4 | 9.0 | 8.7 | 89 | 0.9 | NNE | 6 | 7 | 3 | 4 | 1019.5 | 968.9 | 0.0 | |
| 01/08:40pm | 10.5 | 9.1 | 9.0 | 90 | 0.8 | NNE | 6 | 7 | 3 | 4 | 1019.6 | 969.0 | 0.0 | |
| 01/08:30pm | 10.6 | 9.6 | 8.8 | 89 | 0.9 | NE | 4 | 9 | 2 | 5 | 1019.6 | 969.0 | 0.0 | |
| 01/08:20pm | 11.3 | 9.8 | 9.2 | 87 | 1.1 | NNE | 7 | 11 | 4 | 6 | 1019.4 | 968.8 | 0.0 | |
| 01/08:10pm | 11.4 | 10.5 | 9.4 | 87 | 1.0 | NNE | 4 | 7 | 2 | 4 | 1019.5 | 968.9 | 0.0 | |
| 01/08:00pm | 11.6 | 9.8 | 9.4 | 86 | 1.1 | NNE | 9 | 11 | 5 | 6 | 1019.6 | 969.0 | 0.0 | |
| 01/07:50pm | 11.5 | 9.7 | 9.4 | 87 | 1.1 | NNE | 9 | 11 | 5 | 6 | 1019.5 | 968.9 | 0.0 | |
| 01/07:40pm | 11.4 | 9.5 | 9.2 | 86 | 1.1 | NNE | 9 | 13 | 5 | 7 | 1019.7 | 969.1 | 0.0 | |
| 01/07:30pm | 11.4 | 9.2 | 9.4 | 87 | 1.0 | NNE | 11 | 11 | 6 | 6 | 1019.6 | 969.0 | 0.0 | |
| 01/07:20pm | 11.4 | 9.2 | 9.4 | 87 | 1.0 | NE | 11 | 13 | 6 | 7 | 1019.6 | 969.0 | 0.0 | |
| 01/07:10pm | 11.6 | 9.4 | 9.4 | 86 | 1.1 | NNE | 11 | 13 | 6 | 7 | 1019.7 | 969.1 | 0.0 | |
| 01/07:00pm | 12.8 | 10.7 | 9.9 | 82 | 1.5 | NNE | 11 | 15 | 6 | 8 | 1019.8 | 969.2 | 0.0 | |
| 01/06:50pm | 12.6 | 10.8 | 9.6 | 82 | 1.6 | NNE | 9 | 11 | 5 | 6 | 1020.0 | 969.4 | 0.0 | |
| 01/06:40pm | 12.7 | 11.0 | 9.7 | 82 | 1.6 | NNE | 9 | 11 | 5 | 6 | 1020.0 | 969.4 | 0.0 | |
| 01/06:30pm | 13.1 | 11.8 | 9.8 | 80 | 1.7 | NNE | 7 | 9 | 4 | 5 | 1020.2 | 969.5 | 0.0 | |
| 01/06:20pm | 13.5 | 12.1 | 9.7 | 78 | 2.0 | NNE | 7 | 11 | 4 | 6 | 1020.0 | 969.4 | 0.0 | |
| 01/06:10pm | 14.4 | 13.1 | 10.0 | 75 | 2.3 | N | 7 | 11 | 4 | 6 | 1020.0 | 969.4 | 0.0 | |
| 01/06:00pm | 15.0 | 13.4 | 10.3 | 73 | 2.5 | N | 9 | 13 | 5 | 7 | 1019.9 | 969.3 | 0.0 | |
| 01/05:50pm | 15.9 | 14.4 | 10.6 | 71 | 2.9 | N | 9 | 15 | 5 | 8 | 1019.9 | 969.3 | 0.0 | |
| 01/05:40pm | 16.5 | 15.4 | 10.8 | 69 | 3.1 | N | 7 | 11 | 4 | 6 | 1019.8 | 969.2 | 0.0 | |
| 01/05:30pm | 17.2 | 16.2 | 11.1 | 67 | 3.4 | N | 7 | 11 | 4 | 6 | 1019.8 | 969.2 | 0.0 | |
| 01/05:20pm | 17.7 | 16.4 | 11.2 | 65 | 3.6 | N | 9 | 17 | 5 | 9 | 1019.9 | 969.3 | 0.0 | |
| 01/05:10pm | 17.8 | 16.1 | 11.1 | 65 | 3.7 | NNW | 11 | 15 | 6 | 8 | 1020.0 | 969.4 | 0.0 | |
| 01/05:00pm | 18.2 | 15.4 | 11.4 | 64 | 3.8 | NNW | 17 | 24 | 9 | 13 | 1020.2 | 969.5 | 0.0 | |
| 01/04:50pm | 18.4 | 16.3 | 11.2 | 63 | 4.0 | NNW | 13 | 20 | 7 | 11 | 1020.2 | 969.5 | 0.0 | |
| 01/04:40pm | 18.4 | 15.9 | 11.1 | 62 | 4.0 | NNW | 15 | 22 | 8 | 12 | 1020.0 | 969.4 | 0.0 | |
| 01/04:30pm | 18.9 | 16.4 | 11.1 | 60 | 4.3 | NNW | 15 | 19 | 8 | 10 | 1020.2 | 969.5 | 0.0 | |
| 01/04:20pm | 18.9 | 16.0 | 11.1 | 60 | 4.3 | NNW | 17 | 20 | 9 | 11 | 1020.2 | 969.5 | 0.0 | |
| 01/04:10pm | 19.1 | 16.2 | 10.9 | 59 | 4.5 | NW | 17 | 30 | 9 | 16 | 1020.3 | 969.6 | 0.0 | |
| 01/04:00pm | 18.8 | 15.8 | 10.5 | 58 | 4.6 | NW | 17 | 28 | 9 | 15 | 1020.4 | 969.7 | 0.0 | |
| 01/03:50pm | 19.2 | 15.2 | 10.3 | 56 | 4.9 | NW | 22 | 30 | 12 | 16 | 1020.5 | 969.8 | 0.0 | |
| 01/03:40pm | 19.3 | 15.9 | 10.4 | 56 | 4.9 | NW | 19 | 30 | 10 | 16 | 1020.6 | 969.9 | 0.0 | |
| 01/03:30pm | 19.4 | 16.0 | 11.1 | 58 | 4.6 | NW | 20 | 24 | 11 | 13 | 1020.7 | 970.0 | 0.0 | |
| 01/03:20pm | 19.3 | 15.9 | 10.6 | 57 | 4.8 | WNW | 19 | 33 | 10 | 18 | 1020.8 | 970.1 | 0.0 | |
| 01/03:10pm | 19.5 | 16.2 | 11.0 | 58 | 4.7 | NW | 19 | 28 | 10 | 15 | 1021.0 | 970.3 | 0.0 | |
| 01/03:00pm | 19.5 | 16.1 | 11.3 | 59 | 4.6 | NW | 20 | 33 | 11 | 18 | 1021.0 | 970.3 | 0.0 | |
| 01/02:50pm | 19.6 | 16.0 | 10.4 | 55 | 5.1 | NW | 20 | 33 | 11 | 18 | 1021.2 | 970.5 | 0.0 | |
| 01/02:40pm | 19.7 | 16.3 | 10.7 | 56 | 5.0 | NW | 19 | 28 | 10 | 15 | 1021.3 | 970.6 | 0.0 | |
| 01/02:30pm | 19.5 | 15.6 | 10.8 | 57 | 4.8 | NW | 22 | 30 | 12 | 16 | 1021.3 | 970.6 | 0.0 | |
| 01/02:20pm | 19.9 | 16.4 | 10.9 | 56 | 5.0 | NW | 20 | 26 | 11 | 14 | 1021.4 | 970.7 | 0.0 | |
| 01/02:10pm | 19.9 | 16.1 | 11.0 | 56 | 5.0 | WNW | 22 | 30 | 12 | 16 | 1021.5 | 970.8 | 0.0 | |
| 01/02:00pm | 19.6 | 15.6 | 10.3 | 55 | 5.1 | WNW | 22 | 30 | 12 | 16 | 1021.6 | 970.9 | 0.0 | |
| 01/01:50pm | 19.4 | 15.5 | 10.8 | 57 | 4.8 | NW | 22 | 30 | 12 | 16 | 1021.8 | 971.1 | 0.0 | |
| 01/01:40pm | 19.5 | 15.2 | 10.6 | 56 | 4.9 | NW | 24 | 39 | 13 | 21 | 1021.9 | 971.2 | 0.0 | |
| 01/01:30pm | 19.6 | 15.9 | 10.2 | 54 | 5.2 | NW | 20 | 28 | 11 | 15 | 1022.1 | 971.4 | 0.0 | |
| 01/01:20pm | 19.8 | 15.7 | 11.6 | 59 | 4.6 | NW | 24 | 32 | 13 | 17 | 1022.3 | 971.6 | 0.0 | |
| 01/01:10pm | 19.7 | 16.4 | 11.0 | 57 | 4.8 | NW | 19 | 26 | 10 | 14 | 1022.4 | 971.7 | 0.0 | |
| 01/01:00pm | 19.7 | 16.1 | 11.9 | 60 | 4.4 | NW | 22 | 26 | 12 | 14 | 1022.7 | 971.9 | 0.0 | |
| 01/12:50pm | 19.8 | 16.4 | 11.4 | 58 | 4.7 | WNW | 20 | 28 | 11 | 15 | 1022.9 | 972.1 | 0.0 | |
| 01/12:40pm | 19.8 | 16.4 | 11.1 | 57 | 4.9 | NW | 20 | 26 | 11 | 14 | 1023.0 | 972.2 | 0.0 | |
| 01/12:30pm | 19.6 | 16.0 | 10.5 | 55 | 5.0 | WNW | 20 | 30 | 11 | 16 | 1023.2 | 972.4 | 0.0 | |
| 01/12:20pm | 19.7 | 15.2 | 10.1 | 54 | 5.3 | NW | 24 | 30 | 13 | 16 | 1023.3 | 972.5 | 0.0 | |
| 01/12:10pm | 19.9 | 15.8 | 10.2 | 53 | 5.3 | WNW | 22 | 32 | 12 | 17 | 1023.4 | 972.6 | 0.0 | |
| 01/12:00pm | 19.8 | 16.8 | 9.2 | 50 | 5.7 | NW | 15 | 20 | 8 | 11 | 1023.5 | 972.7 | 0.0 | |
| 01/11:50am | 19.4 | 16.9 | 11.0 | 58 | 4.7 | NW | 15 | 22 | 8 | 12 | 1023.7 | 972.9 | 0.0 | |
| 01/11:40am | 19.3 | 16.7 | 10.8 | 58 | 4.7 | NW | 15 | 20 | 8 | 11 | 1024.0 | 973.2 | 0.0 | |
| 01/11:30am | 18.9 | 15.4 | 10.2 | 57 | 4.8 | NW | 19 | 24 | 10 | 13 | 1024.2 | 973.4 | 0.0 | |
| 01/11:20am | 18.7 | 16.0 | 10.5 | 59 | 4.5 | NW | 15 | 19 | 8 | 10 | 1024.4 | 973.6 | 0.0 | |
| 01/11:10am | 18.4 | 15.4 | 10.7 | 61 | 4.2 | NW | 17 | 24 | 9 | 13 | 1024.7 | 973.9 | 0.0 | |
| 01/11:00am | 18.5 | 15.4 | 10.3 | 59 | 4.5 | NW | 17 | 22 | 9 | 12 | 1024.8 | 974.0 | 0.0 | |
| 01/10:50am | 18.1 | 15.8 | 10.4 | 60 | 4.2 | NNW | 13 | 20 | 7 | 11 | 1025.0 | 974.2 | 0.0 | |
| 01/10:40am | 18.1 | 16.2 | 11.8 | 66 | 3.5 | NNW | 13 | 19 | 7 | 10 | 1025.2 | 974.3 | 0.0 | |
| 01/10:30am | 17.7 | 16.0 | 11.1 | 65 | 3.6 | NNW | 11 | 15 | 6 | 8 | 1025.4 | 974.5 | 0.0 | |
| 01/10:20am | 17.2 | 15.3 | 10.5 | 64 | 3.6 | NNW | 11 | 17 | 6 | 9 | 1025.5 | 974.6 | 0.0 | |
| 01/10:10am | 16.5 | 15.6 | 11.5 | 72 | 2.8 | NNW | 7 | 15 | 4 | 8 | 1025.6 | 974.7 | 0.0 | |
| 01/10:00am | 15.9 | 15.8 | 12.1 | 78 | 2.1 | NW | 4 | 6 | 2 | 3 | 1025.8 | 974.9 | 0.0 | |
| 01/09:50am | 15.1 | 14.9 | 11.8 | 80 | 1.8 | NW | 4 | 7 | 2 | 4 | 1025.9 | 975.0 | 0.0 | |
| 01/09:40am | 14.5 | 14.2 | 11.5 | 82 | 1.6 | NW | 4 | 7 | 2 | 4 | 1026.0 | 975.1 | 0.0 | |
| 01/09:30am | 13.6 | 13.1 | 10.9 | 84 | 1.5 | WNW | 4 | 6 | 2 | 3 | 1026.1 | 975.2 | 0.0 | |
| 01/09:20am | 13.0 | 12.0 | 10.3 | 84 | 1.4 | WNW | 6 | 7 | 3 | 4 | 1026.2 | 975.3 | 0.0 | |
| 01/09:10am | 12.7 | 11.7 | 10.3 | 85 | 1.3 | WNW | 6 | 9 | 3 | 5 | 1026.4 | 975.5 | 0.0 | |
| 01/09:00am | 11.9 | 11.5 | 11.1 | 95 | 0.4 | WNW | 4 | 6 | 2 | 3 | 1026.4 | 975.5 | 0.0 | |
| 01/08:50am | 11.2 | 11.2 | 11.1 | 99 | 0.1 | NNW | 2 | 6 | 1 | 3 | 1026.4 | 975.5 | 0.0 | |
| 01/08:40am | 10.2 | 9.9 | 10.1 | 99 | 0.1 | WNW | 2 | 2 | 1 | 1 | 1026.5 | 975.6 | 0.0 | |
| 01/08:30am | 9.6 | 9.1 | 9.5 | 99 | 0.1 | W | 2 | 4 | 1 | 2 | 1026.6 | 975.7 | 0.0 | |
| 01/08:20am | 8.7 | 8.0 | 8.6 | 99 | 0.0 | W | 2 | 4 | 1 | 2 | 1026.5 | 975.6 | 0.0 | |
| 01/08:10am | 8.3 | 7.9 | 8.2 | 99 | 0.0 | CALM | 0 | 2 | 0 | 1 | 1026.4 | 975.5 | 0.0 | |
| 01/08:00am | 7.3 | 6.3 | 7.2 | 99 | 0.0 | W | 2 | 2 | 1 | 1 | 1026.5 | 975.6 | 0.0 | |
| 01/07:50am | 6.7 | 5.9 | 6.6 | 99 | 0.0 | CALM | 0 | 2 | 0 | 1 | 1026.5 | 975.6 | 0.0 | |
| 01/07:40am | 6.4 | 5.2 | 6.4 | 100 | 0.0 | NE | 2 | 2 | 1 | 1 | 1026.6 | 975.7 | 0.0 | |
| 01/07:30am | 5.9 | 4.6 | 5.8 | 99 | 0.0 | ENE | 2 | 4 | 1 | 2 | 1026.5 | 975.6 | 0.0 | |
| 01/07:20am | 5.3 | 4.2 | 5.2 | 99 | 0.0 | CALM | 0 | 2 | 0 | 1 | 1026.6 | 975.7 | 0.0 | |
| 01/07:10am | 4.6 | 3.0 | 4.5 | 99 | 0.0 | NW | 2 | 4 | 1 | 2 | 1026.7 | 975.8 | 0.0 | |
| 01/07:00am | 3.4 | 1.6 | 3.2 | 99 | 0.1 | W | 2 | 4 | 1 | 2 | 1026.7 | 975.8 | 0.0 | |
| 01/06:50am | 3.1 | 1.6 | 2.9 | 99 | 0.1 | CALM | 0 | 2 | 0 | 1 | 1026.5 | 975.6 | 0.0 | |
| 01/06:40am | 2.7 | 0.3 | 2.4 | 98 | 0.1 | ENE | 4 | 4 | 2 | 2 | 1026.5 | 975.6 | 0.0 | |
| 01/06:30am | 2.5 | 0.5 | 2.2 | 98 | 0.1 | NE | 2 | 4 | 1 | 2 | 1026.5 | 975.6 | 0.0 | |
| 01/06:20am | 2.9 | 1.0 | 2.6 | 98 | 0.1 | ENE | 2 | 4 | 1 | 2 | 1026.5 | 975.6 | 0.0 | |
| 01/06:10am | 3.2 | 1.3 | 3.0 | 99 | 0.1 | E | 2 | 4 | 1 | 2 | 1026.5 | 975.6 | 0.0 | |
| 01/06:00am | 2.9 | 1.0 | 2.7 | 99 | 0.1 | ENE | 2 | 2 | 1 | 1 | 1026.5 | 975.6 | 0.0 | |
| 01/05:50am | 2.8 | 1.2 | 2.5 | 98 | 0.1 | CALM | 0 | 2 | 0 | 1 | 1026.5 | 975.6 | 0.0 | |
| 01/05:40am | 2.8 | 0.8 | 2.4 | 97 | 0.2 | NNE | 2 | 2 | 1 | 1 | 1026.5 | 975.6 | 0.0 | |
| 01/05:30am | 2.9 | 1.0 | 2.6 | 98 | 0.1 | E | 2 | 2 | 1 | 1 | 1026.4 | 975.5 | 0.0 | |
| 01/05:20am | 3.4 | 1.5 | 3.1 | 98 | 0.1 | ENE | 2 | 4 | 1 | 2 | 1026.4 | 975.5 | 0.0 | |
| 01/05:10am | 3.6 | 1.8 | 3.2 | 97 | 0.2 | ENE | 2 | 2 | 1 | 1 | 1026.4 | 975.5 | 0.0 | |
| 01/05:00am | 3.8 | 2.0 | 3.5 | 98 | 0.1 | ENE | 2 | 2 | 1 | 1 | 1026.5 | 975.6 | 0.0 | |
| 01/04:50am | 3.8 | 2.0 | 3.5 | 98 | 0.1 | ENE | 2 | 2 | 1 | 1 | 1026.5 | 975.6 | 0.0 | |
| 01/04:40am | 3.9 | 2.1 | 3.6 | 98 | 0.1 | SSE | 2 | 4 | 1 | 2 | 1026.5 | 975.6 | 0.0 | |
| 01/04:30am | 3.6 | 1.8 | 3.3 | 98 | 0.1 | WSW | 2 | 4 | 1 | 2 | 1026.5 | 975.6 | 0.0 | |
| 01/04:20am | 3.3 | 1.4 | 2.9 | 97 | 0.2 | W | 2 | 2 | 1 | 1 | 1026.5 | 975.6 | 0.0 | |
| 01/04:10am | 3.7 | 1.9 | 3.4 | 98 | 0.1 | W | 2 | 2 | 1 | 1 | 1026.5 | 975.6 | 0.0 | |
| 01/04:00am | 3.7 | 2.3 | 3.3 | 97 | 0.2 | CALM | 0 | 2 | 0 | 1 | 1026.6 | 975.7 | 0.0 | |
| 01/03:50am | 4.1 | 2.4 | 3.8 | 98 | 0.1 | E | 2 | 4 | 1 | 2 | 1026.5 | 975.6 | 0.0 | |
| 01/03:40am | 4.0 | 2.2 | 3.7 | 98 | 0.1 | ENE | 2 | 2 | 1 | 1 | 1026.6 | 975.7 | 0.0 | |
| 01/03:30am | 4.0 | 2.2 | 3.7 | 98 | 0.1 | WNW | 2 | 2 | 1 | 1 | 1026.7 | 975.8 | 0.0 | |
| 01/03:20am | 3.8 | 2.0 | 3.5 | 98 | 0.1 | NW | 2 | 2 | 1 | 1 | 1026.7 | 975.8 | 0.0 | |
| 01/03:10am | 3.8 | 2.0 | 3.4 | 97 | 0.2 | N | 2 | 2 | 1 | 1 | 1026.7 | 975.8 | 0.0 | |
| 01/03:00am | 4.1 | 2.7 | 3.7 | 97 | 0.2 | CALM | 0 | 2 | 0 | 1 | 1026.8 | 975.9 | 0.0 | |
| 01/02:50am | 4.1 | 2.3 | 3.7 | 97 | 0.2 | NNE | 2 | 4 | 1 | 2 | 1026.9 | 976.0 | 0.0 | |
| 01/02:40am | 4.5 | 2.8 | 4.1 | 97 | 0.2 | E | 2 | 4 | 1 | 2 | 1027.0 | 976.1 | 0.0 | |
| 01/02:30am | 4.5 | 2.4 | 4.1 | 97 | 0.2 | ENE | 4 | 4 | 2 | 2 | 1027.2 | 976.3 | 0.0 | |
| 01/02:20am | 4.8 | 3.2 | 4.4 | 97 | 0.2 | ENE | 2 | 4 | 1 | 2 | 1027.3 | 976.4 | 0.0 | |
| 01/02:10am | 4.9 | 3.3 | 4.5 | 97 | 0.2 | E | 2 | 4 | 1 | 2 | 1027.4 | 976.5 | 0.0 | |
| 01/02:00am | 4.8 | 3.2 | 4.4 | 97 | 0.2 | E | 2 | 2 | 1 | 1 | 1027.5 | 976.6 | 0.0 | |
| 01/01:50am | 4.6 | 2.9 | 4.1 | 97 | 0.2 | NE | 2 | 2 | 1 | 1 | 1027.7 | 976.7 | 0.0 | |
| 01/01:40am | 4.7 | 3.0 | 4.2 | 97 | 0.2 | NNW | 2 | 2 | 1 | 1 | 1027.9 | 976.9 | 0.0 | |
| 01/01:30am | 4.5 | 3.2 | 3.9 | 96 | 0.3 | CALM | 0 | 2 | 0 | 1 | 1027.9 | 976.9 | 0.0 | |
| 01/01:20am | 4.8 | 3.5 | 4.3 | 97 | 0.2 | CALM | 0 | 2 | 0 | 1 | 1028.0 | 977.0 | 0.0 | |
| 01/01:10am | 5.1 | 3.9 | 4.5 | 96 | 0.3 | CALM | 0 | 2 | 0 | 1 | 1028.1 | 977.1 | 0.0 | |
| 01/01:00am | 5.5 | 4.4 | 5.0 | 97 | 0.2 | CALM | 0 | 2 | 0 | 1 | 1028.1 | 977.1 | 0.0 | |
| 01/12:50am | 5.4 | 3.9 | 5.0 | 97 | 0.2 | NE | 2 | 2 | 1 | 1 | 1028.1 | 977.1 | 0.0 | |
| 01/12:40am | 5.1 | 3.5 | 4.6 | 97 | 0.2 | NNE | 2 | 2 | 1 | 1 | 1028.1 | 977.1 | 0.0 | |
| 01/12:30am | 5.4 | 3.9 | 4.9 | 97 | 0.2 | NE | 2 | 2 | 1 | 1 | 1028.0 | 977.0 | 0.0 | |
| 01/12:20am | 5.6 | 4.5 | 5.1 | 97 | 0.2 | CALM | 0 | 2 | 0 | 1 | 1028.1 | 977.1 | 0.0 | |
| 01/12:10am | 5.4 | 4.3 | 4.9 | 97 | 0.2 | CALM | 0 | 2 | 0 | 1 | 1028.1 | 977.1 | 0.0 | |
| 01/12:00am | 5.6 | 4.5 | 5.1 | 97 | 0.2 | CALM | 0 | 2 | 0 | 1 | 1028.2 | 977.2 | 0.0 | |
| Date/Time EST |
Temp °C |
App Temp °C |
Dew Point °C |
Rel Hum % |
Delta-T °C |
Wind | Press QNH hPa |
Press MSL hPa |
Rain since 9am mm |
|||||
|---|---|---|---|---|---|---|---|---|---|---|---|---|---|---|
| Dir | Spd km/h |
Gust km/h |
Spd kts |
Gust kts |
||||||||||
| 31/11:50pm | 5.5 | 4.0 | 4.9 | 96 | 0.3 | N | 2 | 2 | 1 | 1 | 1028.2 | 977.2 | 0.0 | |
| 31/11:40pm | 5.8 | 4.3 | 5.2 | 96 | 0.3 | N | 2 | 2 | 1 | 1 | 1028.2 | 977.2 | 0.0 | |
| 31/11:30pm | 5.8 | 4.7 | 5.2 | 96 | 0.3 | CALM | 0 | 2 | 0 | 1 | 1028.3 | 977.3 | 0.0 | |
| 31/11:20pm | 5.6 | 4.5 | 5.0 | 96 | 0.3 | CALM | 0 | 2 | 0 | 1 | 1028.4 | 977.4 | 0.0 | |
| 31/11:10pm | 5.9 | 4.4 | 5.2 | 95 | 0.3 | SSE | 2 | 2 | 1 | 1 | 1028.4 | 977.4 | 0.0 | |
| 31/11:00pm | 5.5 | 4.0 | 4.8 | 95 | 0.3 | NE | 2 | 2 | 1 | 1 | 1028.5 | 977.5 | 0.0 | |
| 31/10:50pm | 5.7 | 4.2 | 5.0 | 95 | 0.3 | NE | 2 | 2 | 1 | 1 | 1028.7 | 977.7 | 0.0 | |
| 31/10:40pm | 5.8 | 4.7 | 5.1 | 95 | 0.3 | CALM | 0 | 2 | 0 | 1 | 1028.8 | 977.8 | 0.0 | |
| 31/10:30pm | 5.7 | 4.2 | 4.9 | 95 | 0.4 | NE | 2 | 2 | 1 | 1 | 1028.8 | 977.8 | 0.0 | |
| 31/10:20pm | 5.8 | 4.3 | 5.0 | 95 | 0.4 | ENE | 2 | 2 | 1 | 1 | 1028.8 | 977.8 | 0.0 | |
| 31/10:10pm | 5.8 | 3.9 | 4.9 | 94 | 0.4 | NE | 4 | 6 | 2 | 3 | 1028.8 | 977.8 | 0.0 | |
| 31/10:00pm | 5.8 | 3.9 | 5.0 | 95 | 0.4 | NE | 4 | 4 | 2 | 2 | 1028.8 | 977.8 | 0.0 | |
| 31/09:50pm | 5.9 | 4.4 | 4.9 | 93 | 0.4 | ENE | 2 | 2 | 1 | 1 | 1028.8 | 977.8 | 0.0 | |
| 31/09:40pm | 6.7 | 5.0 | 6.0 | 95 | 0.3 | ENE | 4 | 6 | 2 | 3 | 1028.9 | 977.9 | 0.0 | |
| 31/09:30pm | 6.6 | 4.9 | 5.8 | 95 | 0.4 | NE | 4 | 4 | 2 | 2 | 1028.9 | 977.9 | 0.0 | |
| 31/09:20pm | 6.6 | 5.2 | 5.7 | 94 | 0.4 | N | 2 | 4 | 1 | 2 | 1028.9 | 977.9 | 0.0 | |
| 31/09:10pm | 6.5 | 5.1 | 5.5 | 93 | 0.5 | W | 2 | 4 | 1 | 2 | 1028.9 | 977.9 | 0.0 | |
| 31/09:00pm | 6.8 | 5.8 | 5.8 | 93 | 0.5 | CALM | 0 | 2 | 0 | 1 | 1029.0 | 978.0 | 0.0 | |
| 31/08:50pm | 7.0 | 5.7 | 5.9 | 93 | 0.5 | ENE | 2 | 2 | 1 | 1 | 1029.0 | 978.0 | 0.0 | |
| 31/08:40pm | 7.3 | 6.1 | 6.3 | 93 | 0.5 | ENE | 2 | 4 | 1 | 2 | 1029.0 | 978.0 | 0.0 | |
| 31/08:30pm | 7.0 | 5.7 | 5.8 | 92 | 0.6 | NNE | 2 | 2 | 1 | 1 | 1028.9 | 977.9 | 0.0 | |
| 31/08:20pm | 7.1 | 5.7 | 5.7 | 91 | 0.6 | NNE | 2 | 2 | 1 | 1 | 1028.8 | 977.8 | 0.0 | |
| 31/08:10pm | 7.6 | 6.3 | 6.2 | 91 | 0.7 | ENE | 2 | 4 | 1 | 2 | 1028.8 | 977.8 | 0.0 | |
| 31/08:00pm | 7.9 | 6.4 | 6.6 | 91 | 0.6 | ENE | 4 | 4 | 2 | 2 | 1028.7 | 977.7 | 0.0 | |
| 31/07:50pm | 8.0 | 6.8 | 6.3 | 89 | 0.8 | E | 2 | 4 | 1 | 2 | 1028.7 | 977.7 | 0.0 | |
| 31/07:40pm | 8.3 | 7.1 | 6.5 | 88 | 0.8 | ESE | 2 | 2 | 1 | 1 | 1028.7 | 977.7 | 0.0 | |
| 31/07:30pm | 8.7 | 7.3 | 7.1 | 90 | 0.8 | ENE | 4 | 6 | 2 | 3 | 1028.7 | 977.7 | 0.0 | |
| 31/07:20pm | 8.7 | 7.2 | 6.8 | 88 | 0.9 | NE | 4 | 6 | 2 | 3 | 1028.8 | 977.8 | 0.0 | |
| 31/07:10pm | 9.1 | 7.6 | 6.8 | 85 | 1.1 | NE | 4 | 6 | 2 | 3 | 1028.8 | 977.8 | 0.0 | |
| 31/07:00pm | 9.5 | 7.7 | 7.0 | 84 | 1.2 | NE | 6 | 6 | 3 | 3 | 1028.8 | 977.8 | 0.0 | |
| 31/06:50pm | 10.0 | 8.2 | 7.1 | 82 | 1.4 | NE | 6 | 6 | 3 | 3 | 1028.7 | 977.7 | 0.0 | |
| 31/06:40pm | 10.7 | 9.0 | 7.5 | 80 | 1.6 | NE | 6 | 6 | 3 | 3 | 1028.7 | 977.7 | 0.0 | |
| 31/06:30pm | 11.4 | 10.2 | 8.0 | 79 | 1.7 | ENE | 4 | 4 | 2 | 2 | 1028.6 | 977.6 | 0.0 | |
| 31/06:20pm | 11.3 | 10.5 | 8.0 | 80 | 1.6 | NE | 2 | 6 | 1 | 3 | 1028.6 | 977.6 | 0.0 | |
| 31/06:10pm | 13.2 | 12.4 | 8.2 | 71 | 2.5 | E | 2 | 2 | 1 | 1 | 1028.5 | 977.5 | 0.0 | |
| 31/06:00pm | 14.4 | 14.0 | 8.2 | 66 | 3.2 | CALM | 0 | 2 | 0 | 1 | 1028.4 | 977.4 | 0.0 | |
| 31/05:50pm | 15.7 | 15.4 | 8.5 | 62 | 3.7 | CALM | 0 | 2 | 0 | 1 | 1028.4 | 977.4 | 0.0 | |
| 31/05:40pm | 16.3 | 16.1 | 9.1 | 62 | 3.8 | CALM | 0 | 2 | 0 | 1 | 1028.4 | 977.4 | 0.0 | |
| 31/05:30pm | 17.0 | 16.6 | 9.8 | 62 | 3.9 | WSW | 2 | 4 | 1 | 2 | 1028.4 | 977.4 | 0.0 | |
| 31/05:20pm | 17.9 | 17.6 | 10.1 | 60 | 4.2 | W | 2 | 4 | 1 | 2 | 1028.4 | 977.4 | 0.0 | |
| 31/05:10pm | 18.3 | 18.0 | 10.1 | 59 | 4.5 | WSW | 2 | 4 | 1 | 2 | 1028.4 | 977.4 | 0.0 | |
| 31/05:00pm | 18.9 | 18.1 | 9.8 | 55 | 4.9 | WSW | 4 | 6 | 2 | 3 | 1028.3 | 977.3 | 0.0 | |
| 31/04:50pm | 19.5 | 18.8 | 10.2 | 55 | 5.1 | WSW | 4 | 4 | 2 | 2 | 1028.3 | 977.3 | 0.0 | |
| 31/04:40pm | 19.6 | 18.5 | 9.9 | 53 | 5.3 | WSW | 6 | 9 | 3 | 5 | 1028.3 | 977.3 | 0.0 | |
| 31/04:30pm | 20.0 | 18.7 | 9.2 | 49 | 5.8 | W | 6 | 9 | 3 | 5 | 1028.3 | 977.3 | 0.0 | |
| 31/04:20pm | 19.9 | 19.0 | 9.4 | 50 | 5.7 | WSW | 4 | 6 | 2 | 3 | 1028.3 | 977.3 | 0.0 | |
| 31/04:10pm | 20.5 | 19.1 | 8.9 | 47 | 6.2 | W | 6 | 7 | 3 | 4 | 1028.3 | 977.3 | 0.0 | |
| 31/04:00pm | 20.6 | 19.4 | 9.5 | 49 | 6.0 | WSW | 6 | 7 | 3 | 4 | 1028.3 | 977.3 | 0.0 | |
| 31/03:50pm | 20.4 | 18.3 | 8.2 | 45 | 6.5 | W | 9 | 13 | 5 | 7 | 1028.3 | 977.3 | 0.0 | |
| 31/03:40pm | 20.8 | 19.2 | 8.0 | 43 | 6.8 | NNW | 6 | 9 | 3 | 5 | 1028.4 | 977.4 | 0.0 | |
| 31/03:30pm | 20.7 | 18.4 | 7.5 | 42 | 6.9 | NW | 9 | 11 | 5 | 6 | 1028.5 | 977.5 | 0.0 | |
| 31/03:20pm | 20.9 | 19.5 | 9.0 | 46 | 6.4 | NW | 6 | 11 | 3 | 6 | 1028.5 | 977.5 | 0.0 | |
| 31/03:10pm | 20.9 | 19.1 | 7.1 | 40 | 7.2 | NNW | 6 | 9 | 3 | 5 | 1028.5 | 977.5 | 0.0 | |
| 31/03:00pm | 21.1 | 19.1 | 8.7 | 45 | 6.7 | NNW | 9 | 9 | 5 | 5 | 1028.6 | 977.6 | 0.0 | |
| 31/02:50pm | 20.7 | 18.2 | 6.4 | 39 | 7.4 | NW | 9 | 13 | 5 | 7 | 1028.6 | 977.6 | 0.0 | |
| 31/02:40pm | 20.7 | 18.8 | 7.4 | 42 | 7.0 | NW | 7 | 13 | 4 | 7 | 1028.6 | 977.6 | 0.0 | |
| 31/02:30pm | 20.8 | 19.0 | 8.1 | 44 | 6.7 | NW | 7 | 11 | 4 | 6 | 1028.6 | 977.6 | 0.0 | |
| 31/02:20pm | 20.9 | 18.7 | 7.8 | 42 | 6.9 | NW | 9 | 15 | 5 | 8 | 1028.7 | 977.7 | 0.0 | |
| 31/02:10pm | 20.9 | 19.6 | 9.2 | 47 | 6.3 | N | 6 | 11 | 3 | 6 | 1028.7 | 977.7 | 0.0 | |
| 31/02:00pm | 20.5 | 19.1 | 9.6 | 49 | 5.9 | NNE | 7 | 9 | 4 | 5 | 1028.8 | 977.8 | 0.0 | |
| 31/01:50pm | 20.8 | 19.7 | 10.0 | 50 | 5.9 | NNE | 6 | 11 | 3 | 6 | 1028.9 | 977.9 | 0.0 | |
| 31/01:40pm | 20.4 | 19.1 | 9.8 | 50 | 5.8 | NNE | 7 | 11 | 4 | 6 | 1029.0 | 978.0 | 0.0 | |
| 31/01:30pm | 20.7 | 19.2 | 8.6 | 45 | 6.5 | N | 6 | 9 | 3 | 5 | 1029.1 | 978.1 | 0.0 | |
| 31/01:20pm | 20.6 | 19.2 | 9.5 | 49 | 6.0 | N | 7 | 11 | 4 | 6 | 1029.3 | 978.3 | 0.0 | |
| 31/01:10pm | 20.4 | 19.6 | 9.7 | 50 | 5.8 | NNW | 4 | 7 | 2 | 4 | 1029.4 | 978.4 | 0.0 | |
| 31/01:00pm | 19.8 | 18.8 | 10.9 | 56 | 5.0 | NW | 7 | 7 | 4 | 4 | 1029.5 | 978.5 | 0.0 | |
| 31/12:50pm | 19.8 | 17.8 | 10.2 | 54 | 5.3 | N | 11 | 13 | 6 | 7 | 1029.6 | 978.6 | 0.0 | |
| 31/12:40pm | 19.6 | 17.8 | 9.4 | 51 | 5.5 | N | 9 | 13 | 5 | 7 | 1029.6 | 978.6 | 0.0 | |
| 31/12:30pm | 19.4 | 18.1 | 11.4 | 60 | 4.5 | NNW | 9 | 15 | 5 | 8 | 1029.7 | 978.7 | 0.0 | |
| 31/12:20pm | 19.3 | 18.7 | 12.2 | 63 | 4.0 | NNW | 7 | 13 | 4 | 7 | 1029.8 | 978.8 | 0.0 | |
| 31/12:10pm | 19.1 | 18.3 | 11.8 | 62 | 4.1 | N | 7 | 11 | 4 | 6 | 1030.1 | 979.0 | 0.0 | |
| 31/12:00pm | 18.8 | 18.1 | 12.1 | 65 | 3.8 | N | 7 | 11 | 4 | 6 | 1030.3 | 979.2 | 0.0 | |
| 31/11:50am | 18.8 | 18.2 | 12.4 | 66 | 3.6 | NE | 7 | 11 | 4 | 6 | 1030.4 | 979.3 | 0.0 | |
| 31/11:40am | 18.8 | 18.3 | 12.8 | 68 | 3.4 | NNE | 7 | 11 | 4 | 6 | 1030.6 | 979.5 | 0.0 | |
| 31/11:30am | 18.2 | 17.7 | 12.1 | 67 | 3.4 | NNE | 6 | 9 | 3 | 5 | 1030.9 | 979.8 | 0.0 | |
| 31/11:20am | 18.2 | 17.8 | 12.4 | 69 | 3.3 | NNE | 6 | 9 | 3 | 5 | 1031.0 | 979.9 | 0.0 | |
| 31/11:10am | 17.8 | 17.5 | 12.6 | 71 | 3.0 | NE | 6 | 11 | 3 | 6 | 1031.2 | 980.1 | 0.0 | |
| 31/11:00am | 17.5 | 16.7 | 11.8 | 69 | 3.2 | ENE | 7 | 9 | 4 | 5 | 1031.3 | 980.2 | 0.0 | |
| 31/10:50am | 17.2 | 16.6 | 12.3 | 73 | 2.8 | E | 7 | 11 | 4 | 6 | 1031.4 | 980.3 | 0.0 | |
| 31/10:40am | 16.6 | 16.2 | 12.3 | 76 | 2.4 | E | 6 | 9 | 3 | 5 | 1031.4 | 980.3 | 0.0 | |
| 31/10:30am | 16.3 | 15.7 | 12.3 | 77 | 2.2 | E | 7 | 11 | 4 | 6 | 1031.5 | 980.4 | 0.0 | |
| 31/10:20am | 16.0 | 15.1 | 11.4 | 74 | 2.5 | E | 7 | 11 | 4 | 6 | 1031.6 | 980.5 | 0.0 | |
| 31/10:10am | 15.7 | 14.8 | 11.4 | 75 | 2.4 | E | 7 | 11 | 4 | 6 | 1031.6 | 980.5 | 0.0 | |
| 31/10:00am | 15.4 | 14.1 | 11.2 | 76 | 2.3 | E | 9 | 13 | 5 | 7 | 1031.6 | 980.5 | 0.0 | |
| 31/09:50am | 14.7 | 13.4 | 11.2 | 79 | 1.9 | E | 9 | 13 | 5 | 7 | 1031.6 | 980.5 | 0.0 | |
| 31/09:40am | 13.1 | 12.9 | 13.0 | 99 | 0.1 | E | 6 | 9 | 3 | 5 | 1031.6 | 980.5 | 0.0 | |
| 31/09:30am | 11.7 | 11.8 | 11.6 | 99 | 0.1 | NNW | 2 | 2 | 1 | 1 | 1031.7 | 980.6 | 0.0 | |
| 31/09:20am | 10.7 | 10.6 | 10.7 | 100 | 0.0 | WNW | 2 | 4 | 1 | 2 | 1031.8 | 980.7 | 0.0 | |
| 31/09:10am | 9.7 | 9.3 | 9.6 | 99 | 0.1 | NW | 2 | 4 | 1 | 2 | 1031.8 | 980.7 | 0.0 | |
| 31/09:00am | 8.8 | 7.8 | 8.8 | 100 | 0.0 | WNW | 4 | 4 | 2 | 2 | 1031.9 | 980.8 | 0.0 | |
| 31/08:50am | 8.0 | 7.1 | 7.9 | 99 | 0.0 | W | 2 | 4 | 1 | 2 | 1031.9 | 980.8 | 0.0 | |
| 31/08:40am | 7.2 | 6.1 | 7.1 | 99 | 0.0 | W | 2 | 4 | 1 | 2 | 1031.8 | 980.7 | 0.0 | |
| 31/08:30am | 6.5 | 5.3 | 6.4 | 99 | 0.0 | WNW | 2 | 4 | 1 | 2 | 1031.8 | 980.7 | 0.0 | |
| 31/08:20am | 5.7 | 4.3 | 5.6 | 99 | 0.0 | WNW | 2 | 4 | 1 | 2 | 1031.8 | 980.7 | 0.0 | |
| 31/08:10am | 4.8 | 2.8 | 4.6 | 99 | 0.1 | WNW | 4 | 6 | 2 | 3 | 1031.9 | 980.8 | 0.0 | |
| 31/08:00am | 4.5 | 2.1 | 4.4 | 99 | 0.0 | WNW | 6 | 6 | 3 | 3 | 1031.8 | 980.7 | 0.0 | |
| 31/07:50am | 4.8 | 2.9 | 4.8 | 100 | 0.0 | NW | 4 | 4 | 2 | 2 | 1031.8 | 980.7 | 0.0 | |
| 31/07:40am | 4.7 | 3.1 | 4.6 | 99 | 0.0 | NNE | 2 | 2 | 1 | 1 | 1031.7 | 980.6 | 0.0 | |
| 31/07:30am | 4.5 | 2.9 | 4.4 | 99 | 0.0 | NNE | 2 | 2 | 1 | 1 | 1031.6 | 980.5 | 0.0 | |
| 31/07:20am | 3.4 | 1.9 | 3.2 | 99 | 0.1 | CALM | 0 | 2 | 0 | 1 | 1031.6 | 980.5 | 0.0 | |
| 31/07:10am | 2.6 | 0.6 | 2.4 | 99 | 0.1 | E | 2 | 2 | 1 | 1 | 1031.5 | 980.4 | 0.0 | |
| 31/07:00am | 1.9 | -0.2 | 1.7 | 99 | 0.1 | NE | 2 | 4 | 1 | 2 | 1031.4 | 980.3 | 0.0 | |
| 31/06:50am | 2.1 | 0.0 | 1.9 | 99 | 0.1 | ENE | 2 | 2 | 1 | 1 | 1031.3 | 980.2 | 0.0 | |
| 31/06:40am | 1.6 | -0.6 | 1.3 | 98 | 0.1 | N | 2 | 2 | 1 | 1 | 1031.2 | 980.1 | 0.0 | |
| 31/06:30am | 1.8 | -0.3 | 1.5 | 98 | 0.1 | NW | 2 | 2 | 1 | 1 | 1031.2 | 980.1 | 0.0 | |
| 31/06:20am | 2.2 | 0.1 | 1.9 | 98 | 0.1 | NW | 2 | 2 | 1 | 1 | 1030.9 | 979.8 | 0.0 | |
| 31/06:10am | 2.6 | 0.6 | 2.4 | 99 | 0.1 | SW | 2 | 2 | 1 | 1 | 1030.8 | 979.7 | 0.0 | |
| 31/06:00am | 2.5 | 0.5 | 2.3 | 99 | 0.1 | W | 2 | 2 | 1 | 1 | 1030.6 | 979.5 | 0.0 | |
| 31/05:50am | 2.7 | 0.7 | 2.5 | 99 | 0.1 | WSW | 2 | 2 | 1 | 1 | 1030.6 | 979.5 | 0.0 | |
| 31/05:40am | 2.9 | 1.0 | 2.7 | 99 | 0.1 | N | 2 | 2 | 1 | 1 | 1030.4 | 979.3 | 0.0 | |
| 31/05:30am | 2.8 | 1.2 | 2.6 | 99 | 0.1 | CALM | 0 | 2 | 0 | 1 | 1030.4 | 979.3 | 0.0 | |
| 31/05:20am | 2.8 | 1.2 | 2.6 | 99 | 0.1 | CALM | 0 | 2 | 0 | 1 | 1030.3 | 979.2 | 0.0 | |
| 31/05:10am | 3.3 | 1.4 | 3.1 | 99 | 0.1 | SSW | 2 | 4 | 1 | 2 | 1030.3 | 979.2 | 0.0 | |
| 31/05:00am | 2.6 | 0.2 | 2.3 | 98 | 0.1 | N | 4 | 6 | 2 | 3 | 1030.1 | 979.0 | 0.0 | |
| 31/04:50am | 3.1 | 1.2 | 2.8 | 98 | 0.1 | NW | 2 | 2 | 1 | 1 | 1030.1 | 979.0 | 0.0 | |
| 31/04:40am | 3.1 | 1.2 | 2.8 | 98 | 0.1 | ENE | 2 | 4 | 1 | 2 | 1030.1 | 979.0 | 0.0 | |
| 31/04:30am | 3.8 | 1.3 | 3.5 | 98 | 0.1 | E | 6 | 6 | 3 | 3 | 1030.1 | 979.0 | 0.0 | |
| 31/04:20am | 4.2 | 2.1 | 4.0 | 99 | 0.1 | E | 4 | 6 | 2 | 3 | 1030.1 | 979.0 | 0.0 | |
| 31/04:10am | 3.2 | 0.6 | 3.0 | 99 | 0.1 | E | 6 | 7 | 3 | 4 | 1030.1 | 979.0 | 0.0 | |
| 31/04:00am | 3.1 | 0.4 | 2.9 | 99 | 0.1 | E | 6 | 7 | 3 | 4 | 1030.2 | 979.1 | 0.0 | |
| 31/03:50am | 2.6 | 0.2 | 2.3 | 98 | 0.1 | ENE | 4 | 7 | 2 | 4 | 1030.2 | 979.1 | 0.0 | |
| 31/03:40am | 3.3 | 1.4 | 2.9 | 97 | 0.2 | E | 2 | 4 | 1 | 2 | 1030.3 | 979.2 | 0.0 | |
| 31/03:30am | 3.5 | 1.7 | 3.2 | 98 | 0.1 | ENE | 2 | 4 | 1 | 2 | 1030.3 | 979.2 | 0.0 | |
| 31/03:20am | 3.1 | 1.2 | 2.7 | 97 | 0.2 | NW | 2 | 4 | 1 | 2 | 1030.2 | 979.1 | 0.0 | |
| 31/03:10am | 3.6 | 1.7 | 3.1 | 97 | 0.2 | SSW | 2 | 4 | 1 | 2 | 1030.2 | 979.1 | 0.0 | |
| 31/03:00am | 4.6 | 3.0 | 4.3 | 98 | 0.1 | ESE | 2 | 2 | 1 | 1 | 1030.2 | 979.1 | 0.0 | |
| 31/02:50am | 4.3 | 3.0 | 4.0 | 98 | 0.1 | CALM | 0 | 2 | 0 | 1 | 1030.2 | 979.1 | 0.0 | |
| 31/02:40am | 4.2 | 2.5 | 3.9 | 98 | 0.1 | W | 2 | 4 | 1 | 2 | 1030.2 | 979.1 | 0.0 | |
| 31/02:30am | 4.3 | 2.6 | 4.0 | 98 | 0.1 | W | 2 | 2 | 1 | 1 | 1030.1 | 979.0 | 0.0 | |
| 31/02:20am | 3.9 | 2.1 | 3.5 | 97 | 0.2 | NNE | 2 | 4 | 1 | 2 | 1030.2 | 979.1 | 0.0 | |
| 31/02:10am | 4.3 | 2.2 | 4.0 | 98 | 0.1 | ENE | 4 | 6 | 2 | 3 | 1030.2 | 979.1 | 0.0 | |
| 31/02:00am | 4.4 | 2.7 | 4.1 | 98 | 0.1 | NE | 2 | 4 | 1 | 2 | 1030.3 | 979.2 | 0.0 | |
| 31/01:50am | 4.2 | 2.1 | 3.9 | 98 | 0.1 | ENE | 4 | 6 | 2 | 3 | 1030.5 | 979.4 | 0.0 | |
| 31/01:40am | 4.4 | 2.3 | 4.0 | 97 | 0.2 | ENE | 4 | 4 | 2 | 2 | 1030.5 | 979.4 | 0.0 | |
| 31/01:30am | 4.3 | 2.6 | 3.9 | 97 | 0.2 | ENE | 2 | 4 | 1 | 2 | 1030.7 | 979.6 | 0.0 | |
| 31/01:20am | 4.1 | 2.0 | 3.7 | 97 | 0.2 | ENE | 4 | 6 | 2 | 3 | 1030.7 | 979.6 | 0.0 | |
| 31/01:10am | 3.9 | 1.7 | 3.5 | 97 | 0.2 | ENE | 4 | 6 | 2 | 3 | 1030.8 | 979.7 | 0.0 | |
| 31/01:00am | 4.0 | 2.2 | 3.6 | 97 | 0.2 | E | 2 | 4 | 1 | 2 | 1030.7 | 979.6 | 0.0 | |
| 31/12:50am | 4.5 | 2.5 | 4.2 | 98 | 0.1 | E | 4 | 6 | 2 | 3 | 1030.7 | 979.6 | 0.0 | |
| 31/12:40am | 4.2 | 1.7 | 3.8 | 97 | 0.2 | NE | 6 | 6 | 3 | 3 | 1030.7 | 979.6 | 0.0 | |
| 31/12:30am | 4.2 | 2.5 | 3.8 | 97 | 0.2 | NE | 2 | 6 | 1 | 3 | 1030.7 | 979.6 | 0.0 | |
| 31/12:20am | 5.1 | 3.5 | 4.7 | 97 | 0.2 | S | 2 | 2 | 1 | 1 | 1030.8 | 979.7 | 0.0 | |
| 31/12:10am | 5.1 | 3.5 | 4.7 | 97 | 0.2 | S | 2 | 2 | 1 | 1 | 1030.8 | 979.7 | 0.0 | |
| 31/12:00am | 5.0 | 3.4 | 4.5 | 97 | 0.2 | WSW | 2 | 2 | 1 | 1 | 1030.8 | 979.7 | 0.0 | |
| Date/Time EST |
Temp °C |
App Temp °C |
Dew Point °C |
Rel Hum % |
Delta-T °C |
Wind | Press QNH hPa |
Press MSL hPa |
Rain since 9am mm |
||||
|---|---|---|---|---|---|---|---|---|---|---|---|---|---|
| Dir | Spd km/h |
Gust km/h |
Spd kts |
Gust kts |
|||||||||
| 30/11:50pm | 4.8 | 3.2 | 4.3 | 97 | 0.2 | WSW | 2 | 4 | 1 | 2 | 1030.9 | 979.8 | 0.0 |
| 30/11:40pm | 4.9 | 3.3 | 4.4 | 97 | 0.2 | WSW | 2 | 2 | 1 | 1 | 1030.8 | 979.7 | 0.0 |
| 30/11:30pm | 5.1 | 3.5 | 4.6 | 97 | 0.2 | WSW | 2 | 2 | 1 | 1 | 1030.8 | 979.7 | 0.0 |
| 30/11:20pm | 5.2 | 3.6 | 4.7 | 97 | 0.2 | ESE | 2 | 4 | 1 | 2 | 1030.9 | 979.8 | 0.0 |
| 30/11:10pm | 5.1 | 3.5 | 4.5 | 96 | 0.3 | NNE | 2 | 4 | 1 | 2 | 1031.0 | 979.9 | 0.0 |
| 30/11:00pm | 5.4 | 3.9 | 4.9 | 97 | 0.2 | NE | 2 | 2 | 1 | 1 | 1031.0 | 979.9 | 0.0 |
| 30/10:50pm | 5.6 | 4.5 | 5.0 | 96 | 0.3 | CALM | 0 | 2 | 0 | 1 | 1031.0 | 979.9 | 0.0 |
| 30/10:40pm | 5.2 | 3.6 | 4.6 | 96 | 0.3 | E | 2 | 2 | 1 | 1 | 1031.0 | 979.9 | 0.0 |
| 30/10:30pm | 5.4 | 3.5 | 4.8 | 96 | 0.3 | ENE | 4 | 6 | 2 | 3 | 1031.0 | 979.9 | 0.0 |
| 30/10:20pm | 5.5 | 3.6 | 4.9 | 96 | 0.3 | NE | 4 | 4 | 2 | 2 | 1031.0 | 979.9 | 0.0 |
| 30/10:10pm | 5.9 | 4.5 | 5.3 | 96 | 0.3 | ENE | 2 | 4 | 1 | 2 | 1031.1 | 980.0 | 0.0 |
| 30/10:00pm | 5.8 | 3.9 | 5.1 | 95 | 0.3 | NE | 4 | 4 | 2 | 2 | 1031.0 | 979.9 | 0.0 |
| 30/09:50pm | 6.0 | 4.2 | 5.3 | 95 | 0.3 | NE | 4 | 4 | 2 | 2 | 1031.0 | 979.9 | 0.0 |
| 30/09:40pm | 6.0 | 4.6 | 5.3 | 95 | 0.3 | E | 2 | 4 | 1 | 2 | 1030.9 | 979.8 | 0.0 |
| 30/09:30pm | 6.3 | 4.9 | 5.7 | 96 | 0.3 | E | 2 | 6 | 1 | 3 | 1030.9 | 979.8 | 0.0 |
| 30/09:20pm | 5.7 | 3.4 | 4.8 | 94 | 0.4 | NE | 6 | 6 | 3 | 3 | 1030.8 | 979.7 | 0.0 |
| 30/09:10pm | 6.2 | 4.8 | 5.3 | 94 | 0.4 | E | 2 | 6 | 1 | 3 | 1030.8 | 979.7 | 0.0 |
| 30/09:00pm | 6.8 | 5.1 | 6.0 | 95 | 0.4 | E | 4 | 6 | 2 | 3 | 1030.7 | 979.6 | 0.0 |
| 30/08:50pm | 6.6 | 4.8 | 5.6 | 93 | 0.5 | NE | 4 | 6 | 2 | 3 | 1030.6 | 979.5 | 0.0 |
| 30/08:40pm | 7.2 | 5.9 | 6.1 | 93 | 0.5 | WSW | 2 | 2 | 1 | 1 | 1030.4 | 979.3 | 0.0 |
| 30/08:30pm | 7.4 | 6.1 | 6.2 | 92 | 0.6 | E | 2 | 2 | 1 | 1 | 1030.4 | 979.3 | 0.0 |
| 30/08:20pm | 8.0 | 6.9 | 7.1 | 94 | 0.4 | ENE | 2 | 4 | 1 | 2 | 1030.4 | 979.3 | 0.0 |
| 30/08:10pm | 7.7 | 6.5 | 6.6 | 93 | 0.5 | ENE | 2 | 4 | 1 | 2 | 1030.4 | 979.3 | 0.0 |
| 30/08:00pm | 7.7 | 6.1 | 6.2 | 90 | 0.7 | NE | 4 | 4 | 2 | 2 | 1030.4 | 979.3 | 0.0 |
| 30/07:50pm | 8.6 | 7.6 | 7.3 | 91 | 0.6 | ENE | 2 | 4 | 1 | 2 | 1030.4 | 979.3 | 0.0 |
| 30/07:40pm | 8.5 | 7.4 | 6.8 | 89 | 0.8 | E | 2 | 4 | 1 | 2 | 1030.3 | 979.2 | 0.0 |
| 30/07:30pm | 9.4 | 8.3 | 7.0 | 85 | 1.2 | ESE | 2 | 4 | 1 | 2 | 1030.3 | 979.2 | 0.0 |
| 30/07:20pm | 10.9 | 10.2 | 8.5 | 85 | 1.2 | ENE | 2 | 2 | 1 | 1 | 1030.3 | 979.2 | 0.0 |
| 30/07:10pm | 9.7 | 8.9 | 8.2 | 90 | 0.7 | NNE | 2 | 4 | 1 | 2 | 1030.3 | 979.2 | 0.0 |
| 30/07:00pm | 9.4 | 8.3 | 7.1 | 85 | 1.1 | NNE | 2 | 4 | 1 | 2 | 1030.3 | 979.2 | 0.0 |
| 30/06:50pm | 10.4 | 9.5 | 7.7 | 83 | 1.3 | E | 2 | 2 | 1 | 1 | 1030.2 | 979.1 | 0.0 |
| 30/06:40pm | 11.9 | 11.3 | 8.8 | 81 | 1.6 | NE | 2 | 2 | 1 | 1 | 1030.1 | 979.0 | 0.0 |
| 30/06:30pm | 11.3 | 10.5 | 8.2 | 81 | 1.6 | NE | 2 | 2 | 1 | 1 | 1029.8 | 978.8 | 0.0 |
| 30/06:20pm | 11.8 | 11.3 | 7.9 | 77 | 1.9 | CALM | 0 | 2 | 0 | 1 | 1029.7 | 978.7 | 0.0 |
| 30/06:10pm | 12.1 | 11.4 | 8.5 | 78 | 1.8 | W | 2 | 4 | 1 | 2 | 1029.5 | 978.5 | 0.0 |
| 30/06:00pm | 12.5 | 11.4 | 8.5 | 76 | 2.0 | WSW | 4 | 6 | 2 | 3 | 1029.4 | 978.4 | 0.0 |
| 30/05:50pm | 13.5 | 12.5 | 8.8 | 73 | 2.4 | WSW | 4 | 7 | 2 | 4 | 1029.4 | 978.4 | 0.0 |
| 30/05:40pm | 13.7 | 12.4 | 9.3 | 75 | 2.3 | SW | 6 | 6 | 3 | 3 | 1029.4 | 978.4 | 0.0 |
| 30/05:30pm | 15.3 | 14.1 | 9.5 | 68 | 3.1 | WSW | 6 | 7 | 3 | 4 | 1029.3 | 978.3 | 0.0 |
| 30/05:20pm | 15.9 | 14.8 | 9.9 | 67 | 3.2 | SW | 6 | 7 | 3 | 4 | 1029.3 | 978.3 | 0.0 |
| 30/05:10pm | 16.5 | 15.8 | 10.2 | 66 | 3.4 | SW | 4 | 7 | 2 | 4 | 1029.1 | 978.1 | 0.0 |
| 30/05:00pm | 17.2 | 16.6 | 10.3 | 64 | 3.7 | W | 4 | 6 | 2 | 3 | 1029.1 | 978.1 | 0.0 |
| 30/04:50pm | 17.7 | 17.2 | 10.8 | 64 | 3.8 | W | 4 | 6 | 2 | 3 | 1029.0 | 978.0 | 0.0 |
| 30/04:40pm | 18.1 | 17.1 | 10.3 | 60 | 4.3 | W | 6 | 9 | 3 | 5 | 1029.0 | 978.0 | 0.0 |
| 30/04:30pm | 18.0 | 16.9 | 10.0 | 59 | 4.3 | WSW | 6 | 9 | 3 | 5 | 1029.0 | 978.0 | 0.0 |
| 30/04:20pm | 18.0 | 16.3 | 10.0 | 59 | 4.3 | WSW | 9 | 15 | 5 | 8 | 1028.9 | 977.9 | 0.0 |
| 30/04:10pm | 18.3 | 17.0 | 9.9 | 58 | 4.6 | W | 7 | 13 | 4 | 7 | 1029.0 | 978.0 | 0.0 |
| 30/04:00pm | 18.3 | 17.0 | 10.1 | 59 | 4.5 | WSW | 7 | 11 | 4 | 6 | 1029.1 | 978.1 | 0.0 |
| 30/03:50pm | 18.3 | 17.2 | 10.0 | 58 | 4.5 | WSW | 6 | 11 | 3 | 6 | 1029.1 | 978.1 | 0.0 |
| 30/03:40pm | 18.4 | 17.3 | 9.8 | 57 | 4.7 | SW | 6 | 7 | 3 | 4 | 1029.2 | 978.2 | 0.0 |
| 30/03:30pm | 18.3 | 16.9 | 8.8 | 54 | 5.0 | WSW | 6 | 13 | 3 | 7 | 1029.4 | 978.4 | 0.0 |
| 30/03:20pm | 18.3 | 17.0 | 9.3 | 55 | 4.8 | W | 6 | 11 | 3 | 6 | 1029.5 | 978.5 | 0.0 |
| 30/03:10pm | 18.4 | 16.6 | 9.5 | 56 | 4.8 | W | 9 | 15 | 5 | 8 | 1029.5 | 978.5 | 0.0 |
| 30/03:00pm | 18.3 | 16.5 | 9.4 | 56 | 4.8 | WSW | 9 | 13 | 5 | 7 | 1029.5 | 978.5 | 0.0 |
| 30/02:50pm | 18.4 | 16.9 | 9.0 | 54 | 5.0 | WSW | 7 | 17 | 4 | 9 | 1029.5 | 978.5 | 0.0 |
| 30/02:40pm | 18.5 | 16.5 | 10.1 | 58 | 4.6 | WNW | 11 | 17 | 6 | 9 | 1029.5 | 978.5 | 0.0 |
| 30/02:30pm | 18.4 | 16.5 | 9.1 | 54 | 5.0 | WSW | 9 | 13 | 5 | 7 | 1029.5 | 978.5 | 0.0 |
| 30/02:20pm | 18.3 | 17.0 | 10.0 | 58 | 4.5 | WNW | 7 | 11 | 4 | 6 | 1029.5 | 978.5 | 0.0 |
| 30/02:10pm | 18.2 | 17.0 | 10.4 | 60 | 4.3 | W | 7 | 13 | 4 | 7 | 1029.5 | 978.5 | 0.0 |
| 30/02:00pm | 18.3 | 17.3 | 10.3 | 59 | 4.4 | WSW | 6 | 9 | 3 | 5 | 1029.6 | 978.6 | 0.0 |
| 30/01:50pm | 18.1 | 16.7 | 10.8 | 62 | 4.0 | W | 9 | 19 | 5 | 10 | 1029.6 | 978.6 | 0.0 |
| 30/01:40pm | 17.7 | 16.8 | 11.3 | 66 | 3.5 | SW | 7 | 9 | 4 | 5 | 1029.7 | 978.7 | 0.0 |
| 30/01:30pm | 17.7 | 17.6 | 12.1 | 69 | 3.2 | WNW | 4 | 9 | 2 | 5 | 1029.9 | 978.9 | 0.0 |
| 30/01:20pm | 17.3 | 16.6 | 12.1 | 71 | 2.9 | SW | 7 | 11 | 4 | 6 | 1030.1 | 979.0 | 0.0 |
| 30/01:10pm | 17.3 | 16.8 | 12.5 | 73 | 2.7 | W | 7 | 9 | 4 | 5 | 1030.3 | 979.2 | 0.0 |
| 30/01:00pm | 16.8 | 16.0 | 11.8 | 72 | 2.8 | WSW | 7 | 11 | 4 | 6 | 1030.5 | 979.4 | 0.0 |
| 30/12:50pm | 16.6 | 15.6 | 11.1 | 70 | 3.0 | SW | 7 | 9 | 4 | 5 | 1030.6 | 979.5 | 0.0 |
| 30/12:40pm | 16.6 | 15.5 | 10.1 | 65 | 3.5 | SW | 6 | 11 | 3 | 6 | 1030.7 | 979.6 | 0.0 |
| 30/12:30pm | 16.5 | 15.1 | 9.0 | 61 | 4.0 | SW | 6 | 9 | 3 | 5 | 1030.8 | 979.7 | 0.0 |
| 30/12:20pm | 16.1 | 14.9 | 9.4 | 64 | 3.5 | WSW | 6 | 11 | 3 | 6 | 1031.0 | 979.9 | 0.0 |
| 30/12:10pm | 15.8 | 14.7 | 9.9 | 68 | 3.2 | SW | 6 | 11 | 3 | 6 | 1031.2 | 980.1 | 0.0 |
| 30/12:00pm | 15.5 | 14.6 | 10.6 | 72 | 2.6 | W | 6 | 7 | 3 | 4 | 1031.3 | 980.2 | 0.0 |
| 30/11:50am | 15.2 | 14.5 | 11.3 | 77 | 2.1 | W | 6 | 7 | 3 | 4 | 1031.5 | 980.4 | 0.0 |
| 30/11:40am | 15.0 | 14.2 | 10.9 | 76 | 2.2 | W | 6 | 9 | 3 | 5 | 1031.6 | 980.5 | 0.0 |
| 30/11:30am | 15.1 | 14.4 | 11.4 | 78 | 2.0 | W | 6 | 9 | 3 | 5 | 1031.7 | 980.6 | 0.0 |
| 30/11:20am | 14.6 | 14.1 | 12.1 | 85 | 1.4 | W | 6 | 7 | 3 | 4 | 1031.7 | 980.6 | 0.0 |
| 30/11:10am | 14.0 | 13.8 | 11.8 | 86 | 1.2 | WNW | 4 | 6 | 2 | 3 | 1031.7 | 980.6 | 0.0 |
| 30/11:00am | 13.6 | 13.1 | 12.1 | 91 | 0.8 | WNW | 6 | 7 | 3 | 4 | 1031.8 | 980.7 | 0.0 |
| 30/10:50am | 13.2 | 13.3 | 12.7 | 97 | 0.3 | W | 4 | 7 | 2 | 4 | 1031.8 | 980.7 | 0.0 |
| 30/10:40am | 12.6 | 12.6 | 12.5 | 99 | 0.1 | W | 4 | 7 | 2 | 4 | 1031.8 | 980.7 | 0.0 |
| 30/10:30am | 12.0 | 11.5 | 11.9 | 99 | 0.1 | W | 6 | 7 | 3 | 4 | 1031.8 | 980.7 | 0.0 |
| 30/10:20am | 11.6 | 11.3 | 11.5 | 99 | 0.1 | W | 4 | 7 | 2 | 4 | 1031.8 | 980.7 | 0.0 |
| 30/10:10am | 10.9 | 10.1 | 10.9 | 100 | 0.0 | WNW | 6 | 7 | 3 | 4 | 1031.8 | 980.7 | 0.0 |
| 30/10:00am | 10.3 | 9.3 | 10.2 | 99 | 0.1 | NW | 6 | 9 | 3 | 5 | 1031.9 | 980.8 | 0.0 |
| 30/09:50am | 10.0 | 9.3 | 9.9 | 99 | 0.1 | WNW | 4 | 7 | 2 | 4 | 1031.9 | 980.8 | 0.0 |
| 30/09:40am | 9.2 | 8.3 | 9.1 | 99 | 0.1 | W | 4 | 6 | 2 | 3 | 1031.9 | 980.8 | 0.0 |
| 30/09:30am | 8.8 | 7.8 | 8.7 | 99 | 0.0 | SW | 4 | 6 | 2 | 3 | 1032.0 | 980.9 | 0.0 |
| 30/09:20am | 8.4 | 6.9 | 8.3 | 99 | 0.0 | SW | 6 | 7 | 3 | 4 | 1032.1 | 981.0 | 0.0 |
| 30/09:10am | 8.3 | 7.2 | 8.3 | 100 | 0.0 | SW | 4 | 6 | 2 | 3 | 1032.1 | 981.0 | 0.0 |
| 30/09:00am | 7.8 | 6.5 | 7.7 | 99 | 0.0 | W | 4 | 6 | 2 | 3 | 1032.1 | 981.0 | 0.0 |
| 30/08:50am | 7.1 | 5.6 | 7.0 | 99 | 0.0 | WNW | 4 | 6 | 2 | 3 | 1032.0 | 980.9 | 0.0 |
| 30/08:40am | 6.5 | 4.9 | 6.5 | 100 | 0.0 | WNW | 4 | 4 | 2 | 2 | 1032.0 | 980.9 | 0.0 |
| 30/08:30am | 5.9 | 4.6 | 5.9 | 100 | 0.0 | WSW | 2 | 6 | 1 | 3 | 1032.0 | 980.9 | 0.0 |
| 30/08:20am | 4.9 | 3.4 | 4.8 | 99 | 0.0 | WSW | 2 | 6 | 1 | 3 | 1031.9 | 980.8 | 0.0 |
| 30/08:10am | 4.5 | 2.9 | 4.4 | 99 | 0.0 | NW | 2 | 4 | 1 | 2 | 1031.7 | 980.6 | 0.0 |
| 30/08:00am | 4.2 | 2.9 | 4.1 | 99 | 0.0 | CALM | 0 | 2 | 0 | 1 | 1031.7 | 980.6 | 0.0 |
| 30/07:50am | 3.8 | 2.0 | 3.6 | 99 | 0.1 | WNW | 2 | 2 | 1 | 1 | 1031.7 | 980.6 | 0.0 |
| 30/07:40am | 3.5 | 1.7 | 3.4 | 99 | 0.0 | SW | 2 | 2 | 1 | 1 | 1031.7 | 980.6 | 0.0 |
| 30/07:30am | 3.2 | 1.7 | 3.0 | 99 | 0.1 | CALM | 0 | 2 | 0 | 1 | 1031.6 | 980.5 | 0.0 |
| 30/07:20am | 2.9 | 1.0 | 2.8 | 99 | 0.0 | N | 2 | 2 | 1 | 1 | 1031.6 | 980.5 | 0.0 |
| 30/07:10am | 2.7 | 1.1 | 2.6 | 99 | 0.0 | CALM | 0 | 2 | 0 | 1 | 1031.5 | 980.4 | 0.0 |
| 30/07:00am | 2.6 | 0.6 | 2.4 | 99 | 0.1 | ENE | 2 | 2 | 1 | 1 | 1031.4 | 980.3 | 0.0 |
| 30/06:50am | 2.5 | 0.5 | 2.4 | 99 | 0.0 | NE | 2 | 2 | 1 | 1 | 1031.3 | 980.2 | 0.0 |
| 30/06:40am | 2.5 | 0.5 | 2.3 | 99 | 0.1 | WSW | 2 | 2 | 1 | 1 | 1031.3 | 980.2 | 0.0 |
| 30/06:30am | 2.6 | 0.6 | 2.5 | 99 | 0.0 | W | 2 | 2 | 1 | 1 | 1031.2 | 980.1 | 0.0 |
| 30/06:20am | 2.6 | 1.0 | 2.4 | 99 | 0.1 | CALM | 0 | 2 | 0 | 1 | 1031.1 | 980.0 | 0.0 |
| 30/06:10am | 2.6 | 0.6 | 2.5 | 99 | 0.0 | E | 2 | 4 | 1 | 2 | 1031.0 | 979.9 | 0.0 |
| 30/06:00am | 2.7 | 0.4 | 2.5 | 99 | 0.1 | SE | 4 | 6 | 2 | 3 | 1031.0 | 979.9 | 0.0 |
Other formats
Comma delimited format used in spreadsheet applications
http://www.bom.gov.au/fwo/IDN60801/IDN60801.99388.axf
JavaScript Object Notation format (JSON) in row-major order
http://www.bom.gov.au/fwo/IDN60801/IDN60801.99388.json
Data quality
Most of these data are generated automatically and are frequently updated. Quality checks on data are not normally performed. It is possible for incorrect values to appear. Refer to information at About Latest Weather Observations and please check the disclaimer before using these data.
